createdAt,value
2019-03-13T00:01:35.279Z,8.60
2019-03-13T00:06:35.272Z,8.60
2019-03-13T00:11:34.870Z,8.50
2019-03-13T00:16:34.415Z,8.70
2019-03-13T00:21:33.973Z,8.80
2019-03-13T00:26:33.502Z,8.70
2019-03-13T00:31:33.025Z,8.80
2019-03-13T00:36:32.560Z,8.90
2019-03-13T00:41:32.067Z,8.80
2019-03-13T00:46:31.586Z,8.90
2019-03-13T00:51:31.112Z,9.00
2019-03-13T00:56:30.629Z,9.00
2019-03-13T01:01:37.908Z,9.00
2019-03-13T01:06:40.652Z,9.00
2019-03-13T01:11:40.186Z,9.10
2019-03-13T01:16:39.791Z,9.00
2019-03-13T01:21:39.401Z,8.90
2019-03-13T01:26:38.940Z,8.90
2019-03-13T01:31:56.579Z,8.90
2019-03-13T01:36:57.082Z,8.90
2019-03-13T01:41:56.601Z,8.80
2019-03-13T01:46:56.140Z,8.60
2019-03-13T01:51:55.658Z,8.50
2019-03-13T01:56:55.204Z,8.30
2019-03-13T02:01:54.736Z,8.20
2019-03-13T02:06:54.271Z,8.00
2019-03-13T02:11:53.792Z,7.90
2019-03-13T02:16:53.329Z,7.90
2019-03-13T02:21:52.867Z,7.90
2019-03-13T02:26:52.411Z,7.70
2019-03-13T02:31:51.980Z,7.70
2019-03-13T02:36:51.510Z,7.80
2019-03-13T02:41:51.044Z,7.70
2019-03-13T02:46:50.610Z,7.80
2019-03-13T02:51:50.196Z,7.80
2019-03-13T02:56:49.726Z,7.80
2019-03-13T03:02:00.136Z,7.90
2019-03-13T03:06:59.665Z,7.90
2019-03-13T03:11:59.178Z,7.80
2019-03-13T03:16:58.704Z,7.80
2019-03-13T03:21:58.236Z,7.80
2019-03-13T03:26:57.758Z,7.80
2019-03-13T03:31:57.298Z,7.80
2019-03-13T03:36:56.832Z,7.60
2019-03-13T03:41:56.379Z,7.40
2019-03-13T03:46:55.916Z,7.30
2019-03-13T03:51:55.439Z,7.20
2019-03-13T03:56:54.962Z,7.10
2019-03-13T04:01:56.964Z,7.00
2019-03-13T04:06:56.494Z,6.90
2019-03-13T04:11:56.009Z,6.80
2019-03-13T04:16:55.620Z,6.90
2019-03-13T04:21:55.167Z,6.70
2019-03-13T04:26:54.780Z,6.80
2019-03-13T04:31:54.334Z,6.80
2019-03-13T04:36:53.876Z,6.80
2019-03-13T04:41:53.394Z,6.80
2019-03-13T04:46:52.928Z,6.80
2019-03-13T04:51:52.571Z,6.70
2019-03-13T04:56:52.103Z,6.70
2019-03-13T05:01:51.721Z,6.70
2019-03-13T05:06:51.262Z,6.80
2019-03-13T05:11:50.804Z,6.60
2019-03-13T05:16:50.349Z,6.50
2019-03-13T05:21:49.884Z,6.40
2019-03-13T05:26:49.401Z,6.30
2019-03-13T05:31:48.922Z,6.30
2019-03-13T05:36:48.462Z,6.30
2019-03-13T05:41:48.006Z,6.30
2019-03-13T05:46:47.553Z,6.20
2019-03-13T05:51:47.075Z,6.20
2019-03-13T05:56:46.612Z,6.20
2019-03-13T06:01:46.151Z,6.10
2019-03-13T06:06:45.683Z,6.10
2019-03-13T06:11:45.207Z,6.20
2019-03-13T06:16:44.739Z,6.30
2019-03-13T06:21:44.296Z,6.40
2019-03-13T06:26:43.844Z,6.40
2019-03-13T06:31:43.367Z,6.30
2019-03-13T06:36:42.916Z,6.40
2019-03-13T06:41:42.447Z,6.40
2019-03-13T06:46:41.996Z,6.30
2019-03-13T06:51:41.971Z,6.40
2019-03-13T06:56:41.626Z,6.40
2019-03-13T07:01:53.941Z,6.50
2019-03-13T07:07:24.664Z,6.50
2019-03-13T07:12:43.254Z,6.60
2019-03-13T07:18:08.054Z,6.70
2019-03-13T07:23:38.981Z,6.90
2019-03-13T07:28:52.318Z,6.80
2019-03-13T07:34:08.245Z,6.70
2019-03-13T07:39:23.667Z,6.80
2019-03-13T07:44:33.568Z,6.90
2019-03-13T07:50:07.640Z,7.10
2019-03-13T07:55:18.576Z,7.10
2019-03-13T08:00:31.414Z,7.20
2019-03-13T08:05:39.376Z,7.30
2019-03-13T08:11:10.353Z,7.50
2019-03-13T08:16:20.906Z,7.60
2019-03-13T08:21:45.677Z,7.80
2019-03-13T08:27:03.865Z,8.00
2019-03-13T08:32:25.546Z,8.70
2019-03-13T08:37:50.484Z,8.90
2019-03-13T08:43:00.791Z,9.00
2019-03-13T08:48:13.085Z,9.10
2019-03-13T08:53:17.937Z,9.00
2019-03-13T08:58:30.676Z,8.70
2019-03-13T09:03:48.057Z,8.90
2019-03-13T09:09:05.311Z,9.00
2019-03-13T09:14:23.005Z,9.50
2019-03-13T09:19:32.464Z,9.80
2019-03-13T09:25:11.670Z,10.30
2019-03-13T09:30:16.745Z,10.00
2019-03-13T09:35:53.511Z,10.40
2019-03-13T09:41:00.912Z,10.50
2019-03-13T09:46:31.631Z,10.10
2019-03-13T09:51:59.383Z,10.10
2019-03-13T09:57:21.892Z,9.60
2019-03-13T10:02:35.617Z,9.60
2019-03-13T10:07:43.019Z,9.60
2019-03-13T10:13:01.481Z,10.20
2019-03-13T10:18:20.986Z,10.00
2019-03-13T10:23:26.757Z,11.50
2019-03-13T10:28:32.928Z,11.60
2019-03-13T10:33:44.555Z,11.20
2019-03-13T10:38:59.831Z,10.40
2019-03-13T10:44:17.559Z,10.10
2019-03-13T10:49:39.912Z,10.00
2019-03-13T10:54:52.547Z,10.10
2019-03-13T11:00:12.467Z,10.80
2019-03-13T11:05:41.013Z,10.80
2019-03-13T11:10:46.289Z,11.10
2019-03-13T11:16:03.651Z,11.20
2019-03-13T11:21:22.316Z,11.20
2019-03-13T11:26:28.287Z,10.90
2019-03-13T11:31:39.891Z,10.70
2019-03-13T11:36:52.940Z,10.60
2019-03-13T11:42:10.387Z,10.40
2019-03-13T11:47:41.458Z,10.30
2019-03-13T11:53:03.998Z,10.20
2019-03-13T11:58:47.601Z,10.20
2019-03-13T12:04:05.180Z,10.10
2019-03-13T12:09:25.191Z,10.00
2019-03-13T12:14:30.348Z,9.80
2019-03-13T12:19:44.819Z,9.80
2019-03-13T12:25:02.168Z,9.80
2019-03-13T12:30:19.812Z,9.80
2019-03-13T12:35:41.332Z,9.80
2019-03-13T12:40:58.644Z,9.80
2019-03-13T12:46:15.982Z,9.80
2019-03-13T12:51:24.023Z,9.70
2019-03-13T12:56:41.363Z,9.80
2019-03-13T13:01:58.300Z,9.70
2019-03-13T13:07:02.740Z,9.60
2019-03-13T13:12:12.897Z,9.60
2019-03-13T13:17:21.748Z,9.70
2019-03-13T13:22:21.290Z,9.60
2019-03-13T13:27:21.082Z,9.60
2019-03-13T13:32:20.668Z,9.60
2019-03-13T13:37:21.755Z,9.70
2019-03-13T13:42:21.464Z,9.60
2019-03-13T13:47:20.988Z,9.60
2019-03-13T13:52:20.547Z,9.90
2019-03-13T13:57:20.129Z,10.10
2019-03-13T14:02:19.713Z,10.00
2019-03-13T14:07:19.340Z,10.00
2019-03-13T14:12:20.070Z,10.00
2019-03-13T14:17:19.911Z,10.30
2019-03-13T14:22:19.455Z,10.20
2019-03-13T14:27:18.985Z,10.10
2019-03-13T14:32:18.525Z,10.00
2019-03-13T14:37:18.060Z,9.90
2019-03-13T14:42:17.695Z,9.90
2019-03-13T14:47:17.221Z,9.80
2019-03-13T14:52:16.902Z,10.10
2019-03-13T14:57:16.771Z,10.10
2019-03-13T15:02:16.400Z,9.90
2019-03-13T15:07:16.222Z,9.80
2019-03-13T15:12:15.759Z,9.80
2019-03-13T15:17:15.304Z,9.80
2019-03-13T15:22:15.486Z,9.70
2019-03-13T15:27:15.024Z,9.70
2019-03-13T15:32:14.652Z,10.00
2019-03-13T15:37:14.201Z,10.00
2019-03-13T15:42:13.745Z,9.80
2019-03-13T15:47:13.280Z,9.80
2019-03-13T15:52:12.818Z,9.90
2019-03-13T15:57:12.360Z,9.70
2019-03-13T16:02:11.905Z,9.70
2019-03-13T16:07:11.439Z,9.70
2019-03-13T16:12:10.981Z,9.90
2019-03-13T16:17:10.653Z,9.70
2019-03-13T16:22:10.574Z,9.60
2019-03-13T16:27:10.106Z,9.60
2019-03-13T16:32:10.807Z,9.70
2019-03-13T16:37:10.347Z,9.60
2019-03-13T16:42:09.932Z,9.50
2019-03-13T16:47:09.544Z,9.60
2019-03-13T16:52:09.104Z,9.50
2019-03-13T16:57:08.637Z,9.50
2019-03-13T17:02:08.238Z,9.40
2019-03-13T17:07:07.772Z,9.40
2019-03-13T17:12:07.289Z,9.40
2019-03-13T17:17:06.832Z,9.50
2019-03-13T17:22:06.622Z,9.30
2019-03-13T17:27:06.166Z,9.20
2019-03-13T17:32:05.866Z,9.20
2019-03-13T17:37:05.572Z,9.20
2019-03-13T17:42:05.446Z,9.20
2019-03-13T17:47:05.130Z,9.20
2019-03-13T17:52:04.673Z,9.10
2019-03-13T17:57:04.300Z,9.10
2019-03-13T18:02:03.902Z,9.10
2019-03-13T18:07:03.693Z,9.10
2019-03-13T18:12:03.215Z,9.00
2019-03-13T18:17:03.035Z,9.00
2019-03-13T18:22:02.796Z,9.00
2019-03-13T18:27:02.426Z,9.00
2019-03-13T18:32:02.028Z,9.00
2019-03-13T18:37:01.641Z,9.00
2019-03-13T18:42:01.265Z,9.00
2019-03-13T18:47:00.900Z,8.90
2019-03-13T18:52:01.601Z,8.60
2019-03-13T18:57:01.290Z,8.30
2019-03-13T19:02:01.053Z,8.20
2019-03-13T19:07:00.583Z,8.00
2019-03-13T19:12:01.095Z,7.90
2019-03-13T19:17:00.639Z,7.90
2019-03-13T19:22:00.170Z,7.80
2019-03-13T19:26:59.705Z,7.80
2019-03-13T19:31:59.255Z,7.90
2019-03-13T19:36:59.764Z,7.90
2019-03-13T19:41:59.295Z,7.80
2019-03-13T19:46:58.843Z,7.90
2019-03-13T19:51:58.374Z,7.90
2019-03-13T19:56:57.893Z,7.90
2019-03-13T20:01:57.428Z,8.00
2019-03-13T20:06:57.042Z,8.00
2019-03-13T20:11:56.587Z,8.10
2019-03-13T20:16:56.111Z,8.10
2019-03-13T20:21:55.651Z,8.10
2019-03-13T20:26:55.202Z,8.10
2019-03-13T20:31:54.845Z,8.10
2019-03-13T20:36:54.476Z,8.20
2019-03-13T20:41:55.134Z,8.10
2019-03-13T20:46:54.673Z,8.20
2019-03-13T20:51:58.506Z,8.10
2019-03-13T20:56:58.152Z,7.90
2019-03-13T21:02:00.107Z,7.80
2019-03-13T21:06:58.928Z,7.80
2019-03-13T21:11:58.441Z,7.90
2019-03-13T21:16:57.979Z,7.70
2019-03-13T21:21:59.259Z,7.80
2019-03-13T21:26:59.103Z,7.70
2019-03-13T21:31:58.645Z,7.70
2019-03-13T21:36:58.174Z,7.60
2019-03-13T21:41:57.831Z,7.40
2019-03-13T21:46:57.361Z,7.30
2019-03-13T21:51:56.970Z,7.20
2019-03-13T21:56:57.083Z,7.20
2019-03-13T22:01:56.739Z,7.30
2019-03-13T22:06:56.270Z,7.30
2019-03-13T22:11:55.811Z,7.20
2019-03-13T22:16:55.369Z,7.00
2019-03-13T22:21:55.010Z,7.00
2019-03-13T22:26:55.646Z,7.00
2019-03-13T22:31:55.397Z,6.80
2019-03-13T22:36:56.607Z,6.70
2019-03-13T22:41:57.330Z,6.70
2019-03-13T22:46:57.922Z,6.70
2019-03-13T22:51:57.725Z,6.70
2019-03-13T22:56:57.304Z,6.70
2019-03-13T23:01:56.838Z,6.70
2019-03-13T23:06:56.362Z,6.70
2019-03-13T23:11:56.865Z,6.80
2019-03-13T23:16:56.407Z,6.70
2019-03-13T23:21:56.620Z,6.90
2019-03-13T23:26:56.171Z,6.90
2019-03-13T23:31:55.712Z,6.80
2019-03-13T23:36:55.243Z,6.90
2019-03-13T23:41:57.595Z,6.90
2019-03-13T23:46:57.135Z,6.80
2019-03-13T23:51:56.734Z,6.90
2019-03-13T23:56:56.276Z,6.80
